Horace Cenac — WDG7714 — position and weather

sailwx.info

Track history (hours):
 
Tides and Currents Weather Stations Pressure Air Temp Water Temp Dewpoint Dewpoint Depression Visibility Wind Speed Wind Dir Waves Ship Positions

Horace Cenac

Owner: Cenac Towing Company LLC, Houma, LA. More information available from US FCC via Universal Licensing System and Coast Guard Vessel Documentation Center.

Last reported at 2017-Sep-20 19:52 UTC. Time now 2017-Sep-22 08:07 UTC.
Position N 30°18' W 086°50'.

Length 91 m; draft 4 m.

Type: Ship (hazmat cat B). MMSI: 367570080.

Date/timePositionNaut miles runAvg speedWind from/ knotsBaromVisibWave heightAir tempDewpointWater temp
2017-Sep-20 19:52N 30°18' W 086°50'274 7.7
2017-Sep-19 08:30N 27°42' W 082°33'3 5.8
2017-Sep-19 08:00N 27°45' W 082°32'4 7.0
2017-Sep-19 07:30N 27°48' W 082°30'3 7.1
2017-Sep-19 07:00N 27°50' W 082°27'4 7.9
2017-Sep-19 06:30N 27°54' W 082°26'1 2.5
2017-Sep-19 05:59N 27°55' W 082°27'0 0.1
2017-Sep-19 05:29N 27°55' W 082°27'0 0.0
2017-Sep-19 04:59N 27°55' W 082°27'0 0.0
2017-Sep-19 04:29N 27°55' W 082°27'0 0.0
2017-Sep-19 03:59N 27°55' W 082°27'0 0.0
2017-Sep-19 03:29N 27°55' W 082°27'0 0.0
2017-Sep-19 02:59N 27°55' W 082°27'0 0.0
2017-Sep-19 02:29N 27°55' W 082°27'0 0.0
2017-Sep-19 01:59N 27°55' W 082°27'0 0.0
2017-Sep-19 01:29N 27°55' W 082°27'0 0.0
2017-Sep-19 00:59N 27°55' W 082°27'0 0.0
2017-Sep-19 00:29N 27°55' W 082°27'0 0.0
2017-Sep-18 23:59N 27°55' W 082°27'0 0.0
2017-Sep-18 23:29N 27°55' W 082°27'0 0.0
2017-Sep-18 22:59N 27°55' W 082°27'0 0.0
2017-Sep-18 22:26N 27°55' W 082°27'0 0.0
2017-Sep-18 21:59N 27°55' W 082°27'0 0.0
2017-Sep-18 21:29N 27°55' W 082°27'0 0.0
2017-Sep-18 20:59N 27°55' W 082°27'0 0.0
2017-Sep-18 20:29N 27°55' W 082°27'0 0.0
2017-Sep-18 19:59N 27°55' W 082°27'0 0.0
2017-Sep-18 19:29N 27°55' W 082°27'0 0.0
2017-Sep-18 18:59N 27°55' W 082°27'0 0.0
2017-Sep-18 18:29N 27°55' W 082°27'0 0.0
2017-Sep-18 18:00N 27°55' W 082°27'0 0.0
2017-Sep-18 17:30N 27°55' W 082°27'0 0.0
2017-Sep-18 17:00N 27°55' W 082°27'0 0.0
2017-Sep-18 16:30N 27°55' W 082°27'0 0.0
2017-Sep-18 16:00N 27°55' W 082°27'1 2.6
2017-Sep-18 15:30N 27°54' W 082°26'4 7.1
2017-Sep-18 14:56N 27°50' W 082°27'3 6.4
2017-Sep-18 14:30N 27°48' W 082°29'3 6.2
2017-Sep-18 14:00N 27°46' W 082°31'  
2017-Sep-12 01:38N 29°21' W 090°44'2 6.1
2017-Sep-12 01:23N 29°22' W 090°44'3 7.2
2017-Sep-12 01:00N 29°25' W 090°43'4 7.5
2017-Sep-12 00:30N 29°29' W 090°43'4 7.9
2017-Sep-12 00:00N 29°32' W 090°42'2 3.8
2017-Sep-11 23:29N 29°34' W 090°43'1 1.5
2017-Sep-11 23:00N 29°34' W 090°44'0 0.0
2017-Sep-11 22:30N 29°34' W 090°44'0 0.4
2017-Sep-11 21:59N 29°34' W 090°43'0 0.0
2017-Sep-11 21:29N 29°34' W 090°43'0 0.0
2017-Sep-11 20:59N 29°34' W 090°43'0 0.0
2017-Sep-11 20:29N 29°34' W 090°43'0 0.0
2017-Sep-11 19:59N 29°34' W 090°43'0 0.0
2017-Sep-11 19:29N 29°34' W 090°43'0 0.0
2017-Sep-11 18:59N 29°34' W 090°43'0 0.0
2017-Sep-11 18:29N 29°34' W 090°43'0 0.0
2017-Sep-11 17:59N 29°34' W 090°43'0 0.0
2017-Sep-11 17:29N 29°34' W 090°43'0 0.0
2017-Sep-11 16:49N 29°34' W 090°43'0 0.0
2017-Sep-11 16:28N 29°34' W 090°43'0 0.0
2017-Sep-11 15:59N 29°34' W 090°43'0 0.0
2017-Sep-11 15:29N 29°34' W 090°43'0 0.0
2017-Sep-11 14:59N 29°34' W 090°43'0 0.0
2017-Sep-11 14:25N 29°34' W 090°43'0 0.0
2017-Sep-11 13:59N 29°34' W 090°43'0 0.0
2017-Sep-11 13:26N 29°34' W 090°43'0 0.0
2017-Sep-11 12:58N 29°34' W 090°43'0 0.0
2017-Sep-11 12:26N 29°34' W 090°43'0 0.0
2017-Sep-11 11:58N 29°34' W 090°43'0 0.0
2017-Sep-11 11:29N 29°34' W 090°43'0 0.0
2017-Sep-11 10:59N 29°34' W 090°43'0 0.0
2017-Sep-11 10:29N 29°34' W 090°43'0 0.0
2017-Sep-11 09:59N 29°34' W 090°43'0 0.0
2017-Sep-11 09:29N 29°34' W 090°43'0 0.0
2017-Sep-11 08:59N 29°34' W 090°43'0 0.0
2017-Sep-11 08:28N 29°34' W 090°43'0 0.0
2017-Sep-11 07:59N 29°34' W 090°43'0 0.0
2017-Sep-11 07:28N 29°34' W 090°43'0 0.0
2017-Sep-11 06:59N 29°34' W 090°43'0 0.0
2017-Sep-11 06:26N 29°34' W 090°43'0 0.0
2017-Sep-11 05:58N 29°34' W 090°43'0 0.0
2017-Sep-11 05:29N 29°34' W 090°43'0 0.0
2017-Sep-11 04:59N 29°34' W 090°43'0 0.0
2017-Sep-11 04:29N 29°34' W 090°43'0 0.0
2017-Sep-11 03:59N 29°34' W 090°43'0 0.0
2017-Sep-11 03:25N 29°34' W 090°43'0 0.0
2017-Sep-11 02:59N 29°34' W 090°43'0 0.0
2017-Sep-11 02:08N 29°34' W 090°43'0 0.0
2017-Sep-11 01:59N 29°34' W 090°43'0 0.0
2017-Sep-11 01:29N 29°34' W 090°43'0 0.0
2017-Sep-11 00:59N 29°34' W 090°43'0 0.0
2017-Sep-11 00:28N 29°34' W 090°43'0 0.0
2017-Sep-10 23:58N 29°34' W 090°43'0 0.0
2017-Sep-10 23:28N 29°34' W 090°43'0 0.0
2017-Sep-10 22:56N 29°34' W 090°43'0 0.0
2017-Sep-10 22:28N 29°34' W 090°43'0 0.0
2017-Sep-10 21:58N 29°34' W 090°43'0 0.0
2017-Sep-10 21:29N 29°34' W 090°43'0 0.0
2017-Sep-10 20:58N 29°34' W 090°43'0 0.0
2017-Sep-10 20:28N 29°34' W 090°43'0 0.0
2017-Sep-10 19:58N 29°34' W 090°43'  
Track history (hours):
 
Tides and Currents Weather Stations Pressure Air Temp Water Temp Dewpoint Dewpoint Depression Visibility Wind Speed Wind Dir Waves Ship Positions

Horace Cenac

Owner: Cenac Towing Company LLC, Houma, LA. More information available from US FCC via Universal Licensing System and Coast Guard Vessel Documentation Center.

Last reported at 2017-Sep-20 19:52 UTC. Time now 2017-Sep-22 08:07 UTC.
Position N 30°18' W 086°50'.

Length 91 m; draft 4 m.

Type: Ship (hazmat cat B). MMSI: 367570080.

Date/timePositionNaut miles runAvg speedWind from/ knotsBaromVisibWave heightAir tempDewpointWater temp
2017-Sep-20 19:52N 30°18' W 086°50'274 7.7
2017-Sep-19 08:30N 27°42' W 082°33'3 5.8
2017-Sep-19 08:00N 27°45' W 082°32'4 7.0
2017-Sep-19 07:30N 27°48' W 082°30'3 7.1
2017-Sep-19 07:00N 27°50' W 082°27'4 7.9
2017-Sep-19 06:30N 27°54' W 082°26'1 2.5
2017-Sep-19 05:59N 27°55' W 082°27'0 0.1
2017-Sep-19 05:29N 27°55' W 082°27'0 0.0
2017-Sep-19 04:59N 27°55' W 082°27'0 0.0
2017-Sep-19 04:29N 27°55' W 082°27'0 0.0
2017-Sep-19 03:59N 27°55' W 082°27'0 0.0
2017-Sep-19 03:29N 27°55' W 082°27'0 0.0
2017-Sep-19 02:59N 27°55' W 082°27'0 0.0
2017-Sep-19 02:29N 27°55' W 082°27'0 0.0
2017-Sep-19 01:59N 27°55' W 082°27'0 0.0
2017-Sep-19 01:29N 27°55' W 082°27'0 0.0
2017-Sep-19 00:59N 27°55' W 082°27'0 0.0
2017-Sep-19 00:29N 27°55' W 082°27'0 0.0
2017-Sep-18 23:59N 27°55' W 082°27'0 0.0
2017-Sep-18 23:29N 27°55' W 082°27'0 0.0
2017-Sep-18 22:59N 27°55' W 082°27'0 0.0
2017-Sep-18 22:26N 27°55' W 082°27'0 0.0
2017-Sep-18 21:59N 27°55' W 082°27'0 0.0
2017-Sep-18 21:29N 27°55' W 082°27'0 0.0
2017-Sep-18 20:59N 27°55' W 082°27'0 0.0
2017-Sep-18 20:29N 27°55' W 082°27'0 0.0
2017-Sep-18 19:59N 27°55' W 082°27'0 0.0
2017-Sep-18 19:29N 27°55' W 082°27'0 0.0
2017-Sep-18 18:59N 27°55' W 082°27'0 0.0
2017-Sep-18 18:29N 27°55' W 082°27'0 0.0
2017-Sep-18 18:00N 27°55' W 082°27'0 0.0
2017-Sep-18 17:30N 27°55' W 082°27'0 0.0
2017-Sep-18 17:00N 27°55' W 082°27'0 0.0
2017-Sep-18 16:30N 27°55' W 082°27'0 0.0
2017-Sep-18 16:00N 27°55' W 082°27'1 2.6
2017-Sep-18 15:30N 27°54' W 082°26'4 7.1
2017-Sep-18 14:56N 27°50' W 082°27'3 6.4
2017-Sep-18 14:30N 27°48' W 082°29'3 6.2
2017-Sep-18 14:00N 27°46' W 082°31'  
2017-Sep-12 01:38N 29°21' W 090°44'2 6.1
2017-Sep-12 01:23N 29°22' W 090°44'3 7.2
2017-Sep-12 01:00N 29°25' W 090°43'4 7.5
2017-Sep-12 00:30N 29°29' W 090°43'4 7.9
2017-Sep-12 00:00N 29°32' W 090°42'2 3.8
2017-Sep-11 23:29N 29°34' W 090°43'1 1.5
2017-Sep-11 23:00N 29°34' W 090°44'0 0.0
2017-Sep-11 22:30N 29°34' W 090°44'0 0.4
2017-Sep-11 21:59N 29°34' W 090°43'0 0.0
2017-Sep-11 21:29N 29°34' W 090°43'0 0.0
2017-Sep-11 20:59N 29°34' W 090°43'0 0.0
2017-Sep-11 20:29N 29°34' W 090°43'0 0.0
2017-Sep-11 19:59N 29°34' W 090°43'0 0.0
2017-Sep-11 19:29N 29°34' W 090°43'0 0.0
2017-Sep-11 18:59N 29°34' W 090°43'0 0.0
2017-Sep-11 18:29N 29°34' W 090°43'0 0.0
2017-Sep-11 17:59N 29°34' W 090°43'0 0.0
2017-Sep-11 17:29N 29°34' W 090°43'0 0.0
2017-Sep-11 16:49N 29°34' W 090°43'0 0.0
2017-Sep-11 16:28N 29°34' W 090°43'0 0.0
2017-Sep-11 15:59N 29°34' W 090°43'0 0.0
2017-Sep-11 15:29N 29°34' W 090°43'0 0.0
2017-Sep-11 14:59N 29°34' W 090°43'0 0.0
2017-Sep-11 14:25N 29°34' W 090°43'0 0.0
2017-Sep-11 13:59N 29°34' W 090°43'0 0.0
2017-Sep-11 13:26N 29°34' W 090°43'0 0.0
2017-Sep-11 12:58N 29°34' W 090°43'0 0.0
2017-Sep-11 12:26N 29°34' W 090°43'0 0.0
2017-Sep-11 11:58N 29°34' W 090°43'0 0.0
2017-Sep-11 11:29N 29°34' W 090°43'0 0.0
2017-Sep-11 10:59N 29°34' W 090°43'0 0.0
2017-Sep-11 10:29N 29°34' W 090°43'0 0.0
2017-Sep-11 09:59N 29°34' W 090°43'0 0.0
2017-Sep-11 09:29N 29°34' W 090°43'0 0.0
2017-Sep-11 08:59N 29°34' W 090°43'0 0.0
2017-Sep-11 08:28N 29°34' W 090°43'0 0.0
2017-Sep-11 07:59N 29°34' W 090°43'0 0.0
2017-Sep-11 07:28N 29°34' W 090°43'0 0.0
2017-Sep-11 06:59N 29°34' W 090°43'0 0.0
2017-Sep-11 06:26N 29°34' W 090°43'0 0.0
2017-Sep-11 05:58N 29°34' W 090°43'0 0.0
2017-Sep-11 05:29N 29°34' W 090°43'0 0.0
2017-Sep-11 04:59N 29°34' W 090°43'0 0.0
2017-Sep-11 04:29N 29°34' W 090°43'0 0.0
2017-Sep-11 03:59N 29°34' W 090°43'0 0.0
2017-Sep-11 03:25N 29°34' W 090°43'0 0.0
2017-Sep-11 02:59N 29°34' W 090°43'0 0.0
2017-Sep-11 02:08N 29°34' W 090°43'0 0.0
2017-Sep-11 01:59N 29°34' W 090°43'0 0.0
2017-Sep-11 01:29N 29°34' W 090°43'0 0.0
2017-Sep-11 00:59N 29°34' W 090°43'0 0.0
2017-Sep-11 00:28N 29°34' W 090°43'0 0.0
2017-Sep-10 23:58N 29°34' W 090°43'0 0.0
2017-Sep-10 23:28N 29°34' W 090°43'0 0.0
2017-Sep-10 22:56N 29°34' W 090°43'0 0.0
2017-Sep-10 22:28N 29°34' W 090°43'0 0.0
2017-Sep-10 21:58N 29°34' W 090°43'0 0.0
2017-Sep-10 21:29N 29°34' W 090°43'0 0.0
2017-Sep-10 20:58N 29°34' W 090°43'0 0.0
2017-Sep-10 20:28N 29°34' W 090°43'0 0.0
2017-Sep-10 19:58N 29°34' W 090°43'  

Dump ship's entire track history